Time;durP1;ratioP1;P1;durP2;ratioP2;P2;SDS_P1;SDS_P2;PMS_P1;PMS_P2;Temp;Humidity;BMP_temperature;BMP_pressure;BME280_temperature;BME280_humidity;BME280_pressure;Samples;Min_cycle;Max_cycle;Signal;HPM_P1;HPM_P2
2022/01/14 00:01:22;;;;;;;35.10;18.67;;;;;;;-2.79;100.00;96422.16;5007315;28;20285;-76
2022/01/14 00:04:08;;;;;;;36.50;20.53;;;;;;;-2.87;100.00;96413.13;5020203;28;20199;-76
2022/01/14 00:06:55;;;;;;;38.20;21.97;;;;;;;-2.62;100.00;96421.94;5008402;28;20207;-76
2022/01/14 00:09:41;;;;;;;38.60;21.30;;;;;;;-2.78;100.00;96415.69;5016932;28;20349;-76
2022/01/14 00:12:35;;;;;;;39.33;21.20;;;;;;;-2.55;100.00;96409.56;5025136;28;20220;-76
2022/01/14 00:15:24;;;;;;;40.03;21.97;;;;;;;-2.50;100.00;96412.00;5025367;28;20230;-75
2022/01/14 00:18:10;;;;;;;41.67;21.60;;;;;;;-2.53;100.00;96395.84;5025062;28;20402;-76
2022/01/14 00:20:56;;;;;;;34.53;20.97;;;;;;;-2.68;100.00;96402.66;5007761;28;20218;-75
2022/01/14 00:23:44;;;;;;;36.97;20.27;;;;;;;-2.72;100.00;96390.31;5027443;28;20305;-76
2022/01/14 00:33:05;;;;;;;30.33;18.27;;;;;;;-2.90;100.00;96380.97;5027454;28;20205;-75
2022/01/14 00:35:51;;;;;;;34.23;18.17;;;;;;;-3.29;100.00;96374.38;5011867;28;20245;-75
2022/01/14 00:38:37;;;;;;;32.47;18.60;;;;;;;-3.42;100.00;96386.16;5018048;28;20924;-76
2022/01/14 00:41:23;;;;;;;34.17;19.50;;;;;;;-3.16;100.00;96375.94;5012152;28;21569;-76
2022/01/14 00:44:14;;;;;;;33.13;19.20;;;;;;;-3.02;100.00;96380.97;5009935;28;20282;-75
2022/01/14 00:47:02;;;;;;;29.67;17.13;;;;;;;-2.97;100.00;96375.41;5023274;28;20616;-75
2022/01/14 00:49:48;;;;;;;31.43;18.50;;;;;;;-2.78;100.00;96376.38;5015172;28;20223;-75
2022/01/14 00:52:35;;;;;;;31.80;18.53;;;;;;;-2.55;100.00;96376.69;5026544;28;20274;-75
2022/01/14 00:55:28;;;;;;;33.90;18.73;;;;;;;-2.78;100.00;96364.91;5009259;28;20211;-74
2022/01/14 01:01:18;;;;;;;29.00;17.77;;;;;;;-3.13;100.00;96385.97;5024753;28;20656;-75
2022/01/14 01:04:04;;;;;;;31.60;17.37;;;;;;;-3.50;100.00;96367.56;5028218;28;20548;-75
2022/01/14 01:06:50;;;;;;;32.17;18.27;;;;;;;-3.55;100.00;96362.44;5017354;28;20210;-76
2022/01/14 01:09:40;;;;;;;29.33;17.20;;;;;;;-3.61;100.00;96356.50;5025894;28;20230;-75
2022/01/14 01:12:40;;;;;;;28.23;16.50;;;;;;;-3.05;100.00;96363.69;5027926;28;20680;-75
2022/01/14 01:15:26;;;;;;;32.80;18.23;;;;;;;-2.82;100.00;96370.13;5024207;28;20256;-75
2022/01/14 01:18:11;;;;;;;35.43;17.83;;;;;;;-2.84;100.00;96364.38;5000093;28;20246;-75
2022/01/14 01:20:59;;;;;;;26.03;15.40;;;;;;;-3.27;100.00;96363.34;5009659;28;20226;-75
2022/01/14 01:23:45;;;;;;;28.50;17.00;;;;;;;-3.45;100.00;96376.13;5024610;28;20227;-76
2022/01/14 01:26:36;;;;;;;27.17;15.57;;;;;;;-3.17;100.00;96360.25;5012381;28;20206;-75
2022/01/14 01:32:14;;;;;;;25.83;15.20;;;;;;;-3.37;100.00;96361.09;5022357;28;20196;-74
2022/01/14 01:35:00;;;;;;;26.60;15.57;;;;;;;-3.31;100.00;96349.13;5019833;28;20203;-74
2022/01/14 01:37:45;;;;;;;27.17;15.33;;;;;;;-3.31;100.00;96343.78;5029683;28;20286;-74
2022/01/14 01:40:31;;;;;;;28.00;15.03;;;;;;;-3.15;100.00;96363.34;5003717;28;20221;-74
2022/01/14 01:43:21;;;;;;;29.83;16.70;;;;;;;-3.13;100.00;96351.22;5023955;28;20247;-74
2022/01/14 01:46:06;;;;;;;26.80;14.50;;;;;;;-3.22;100.00;96355.91;5007523;28;20191;-74
2022/01/14 01:48:53;;;;;;;24.97;14.40;;;;;;;-3.47;100.00;96356.19;5009459;28;20264;-75
2022/01/14 01:51:39;;;;;;;29.93;16.10;;;;;;;-3.65;100.00;96352.97;5023130;28;20203;-74
2022/01/14 01:54:27;;;;;;;26.60;15.43;;;;;;;-3.75;100.00;96343.47;5022768;28;20296;-74
2022/01/14 01:57:13;;;;;;;24.43;15.83;;;;;;;-3.49;100.00;96345.06;5025390;28;20207;-75
2022/01/14 01:59:59;;;;;;;28.97;14.77;;;;;;;-3.48;100.00;96358.13;5020574;28;20212;-75
2022/01/14 02:02:48;;;;;;;26.00;14.10;;;;;;;-3.42;100.00;96351.44;5023976;28;20215;-74
2022/01/14 02:05:34;;;;;;;25.83;15.33;;;;;;;-3.63;100.00;96345.38;5014590;28;20191;-75
2022/01/14 02:08:20;;;;;;;23.57;14.83;;;;;;;-3.73;100.00;96333.25;5025861;28;20665;-75
2022/01/14 02:11:06;;;;;;;27.17;15.83;;;;;;;-3.84;100.00;96340.13;5024598;28;20224;-75
2022/01/14 02:13:54;;;;;;;25.90;14.97;;;;;;;-3.54;100.00;96338.06;5000855;28;20584;-74
2022/01/14 02:23:09;;;;;;;26.67;15.67;;;;;;;-3.83;100.00;96328.34;5021507;28;20305;-75
2022/01/14 02:25:55;;;;;;;26.60;14.33;;;;;;;-3.71;100.00;96340.94;5011090;28;20194;-75
2022/01/14 02:28:42;;;;;;;27.47;15.17;;;;;;;-3.37;100.00;96340.53;4997266;28;20202;-74
2022/01/14 02:31:28;;;;;;;23.03;14.57;;;;;;;-3.59;100.00;96330.28;5011084;28;20262;-74
2022/01/14 02:34:15;;;;;;;23.97;14.40;;;;;;;-3.45;100.00;96335.28;5013950;28;20227;-75
2022/01/14 02:37:01;;;;;;;22.33;13.73;;;;;;;-3.32;100.00;96331.50;5010858;28;20214;-75
2022/01/14 02:39:47;;;;;;;19.07;13.17;;;;;;;-3.14;100.00;96335.53;5005151;28;20596;-75
2022/01/14 02:42:33;;;;;;;23.53;14.13;;;;;;;-3.28;100.00;96324.41;5010891;28;20227;-75
2022/01/14 02:45:21;;;;;;;22.17;13.33;;;;;;;-3.25;100.00;96321.84;5016544;28;20206;-75
2022/01/14 02:48:07;;;;;;;20.33;12.70;;;;;;;-3.27;100.00;96313.38;5008497;28;20277;-75
2022/01/14 02:56:31;;;;;;;25.33;13.93;;;;;;;-3.46;100.00;96317.72;5020817;28;20206;-75
2022/01/14 02:59:18;;;;;;;22.77;13.30;;;;;;;-3.22;100.00;96310.47;5009194;28;20265;-75
2022/01/14 03:02:07;;;;;;;21.43;12.73;;;;;;;-3.48;100.00;96299.38;5004649;28;20215;-75
2022/01/14 03:04:53;;;;;;;23.87;13.80;;;;;;;-3.49;100.00;96299.69;5011321;28;20202;-74
2022/01/14 03:07:41;;;;;;;25.03;13.63;;;;;;;-3.38;100.00;96312.28;5010404;28;20234;-75
2022/01/14 03:10:27;;;;;;;21.63;13.83;;;;;;;-3.16;100.00;96305.69;5007224;28;20694;-74
2022/01/14 03:13:13;;;;;;;26.57;14.43;;;;;;;-3.19;100.00;96296.44;5022073;28;20237;-74
2022/01/14 03:16:01;;;;;;;28.47;14.17;;;;;;;-3.10;100.00;96296.34;5022868;28;20194;-74
2022/01/14 03:18:50;;;;;;;26.27;13.97;;;;;;;-3.23;100.00;96295.59;5021705;28;20326;-74
2022/01/14 03:21:40;;;;;;;24.83;15.43;;;;;;;-3.26;100.00;96301.59;5006695;28;20195;-75
2022/01/14 03:27:21;;;;;;;25.20;13.87;;;;;;;-3.31;100.00;96271.66;5019765;28;20303;-74
2022/01/14 03:30:07;;;;;;;21.03;12.73;;;;;;;-3.28;100.00;96273.66;5010105;28;20242;-73
2022/01/14 03:32:53;;;;;;;20.33;13.33;;;;;;;-3.18;100.00;96271.31;5012468;28;20222;-74
2022/01/14 03:35:39;;;;;;;19.43;13.00;;;;;;;-2.97;100.00;96271.94;5021214;28;20206;-74
2022/01/14 03:38:25;;;;;;;23.47;12.83;;;;;;;-3.22;100.00;96266.97;5009047;28;20238;-74
2022/01/14 03:41:11;;;;;;;24.20;13.07;;;;;;;-3.33;100.00;96268.53;5015162;28;20223;-74
2022/01/14 03:43:57;;;;;;;19.97;13.10;;;;;;;-3.07;100.00;96264.38;5006724;28;20298;-74
2022/01/14 03:46:43;;;;;;;22.87;13.90;;;;;;;-3.19;100.00;96267.06;5022955;28;20253;-74
2022/01/14 03:49:29;;;;;;;23.30;12.77;;;;;;;-3.07;100.00;96272.41;5022963;28;20218;-74
2022/01/14 03:52:17;;;;;;;22.23;12.17;;;;;;;-3.53;100.00;96267.56;5015807;28;20204;-74
2022/01/14 03:55:03;;;;;;;19.40;13.00;;;;;;;-3.42;100.00;96267.88;5013380;28;20192;-74
2022/01/14 03:57:49;;;;;;;22.77;14.00;;;;;;;-3.50;100.00;96263.41;5013809;28;20272;-75
2022/01/14 04:00:36;;;;;;;20.63;13.10;;;;;;;-3.44;100.00;96273.53;5022523;28;20219;-74
2022/01/14 04:03:22;;;;;;;22.43;13.97;;;;;;;-3.39;100.00;96259.22;5022327;28;20301;-74
2022/01/14 04:06:10;;;;;;;22.83;14.17;;;;;;;-3.38;100.00;96261.53;5005882;28;21825;-74
2022/01/14 04:08:56;;;;;;;21.43;12.73;;;;;;;-3.32;100.00;96262.84;5023989;28;20187;-74
2022/01/14 04:11:44;;;;;;;25.33;13.53;;;;;;;-3.30;100.00;96249.94;5020708;28;20281;-74
2022/01/14 04:17:17;;;;;;;20.40;12.07;;;;;;;-3.20;100.00;96254.84;5016882;28;20592;-75
2022/01/14 04:20:03;;;;;;;23.13;13.00;;;;;;;-3.64;100.00;96241.59;5018808;28;20657;-74
2022/01/14 04:22:49;;;;;;;20.77;12.80;;;;;;;-3.42;100.00;96254.50;5024558;28;20521;-73
2022/01/14 04:25:35;;;;;;;20.27;12.90;;;;;;;-3.59;100.00;96247.50;5006591;28;20250;-74
2022/01/14 04:28:25;;;;;;;20.13;13.03;;;;;;;-3.97;100.00;96250.47;5022056;28;20703;-74
2022/01/14 04:31:11;;;;;;;22.70;13.17;;;;;;;-3.91;100.00;96245.72;5006368;28;20266;-75
2022/01/14 04:33:57;;;;;;;21.30;12.77;;;;;;;-3.84;100.00;96246.72;5013881;28;20195;-74
2022/01/14 04:36:43;;;;;;;22.77;13.47;;;;;;;-3.81;100.00;96247.94;5021965;28;20552;-75
2022/01/14 04:39:29;;;;;;;22.57;12.93;;;;;;;-3.69;100.00;96218.59;5018697;28;20567;-74
2022/01/14 04:42:15;;;;;;;21.77;13.07;;;;;;;-3.47;100.00;96236.03;5027164;28;20222;-75
2022/01/14 04:45:01;;;;;;;22.53;11.57;;;;;;;-3.51;100.00;96229.84;5017311;28;20294;-75
2022/01/14 04:47:47;;;;;;;25.33;13.67;;;;;;;-3.65;100.00;96232.06;5010897;28;20275;-74
2022/01/14 04:50:33;;;;;;;20.83;13.03;;;;;;;-3.62;100.00;96231.38;5020137;28;20223;-76
2022/01/14 04:53:20;;;;;;;24.93;12.47;;;;;;;-3.53;100.00;96235.50;5003760;28;20215;-76
2022/01/14 04:56:07;;;;;;;21.67;12.97;;;;;;;-3.34;100.00;96234.94;5028204;28;20227;-75
2022/01/14 04:58:53;;;;;;;21.47;13.03;;;;;;;-3.34;100.00;96232.28;5025627;28;20211;-75
2022/01/14 05:01:39;;;;;;;19.37;12.53;;;;;;;-3.39;100.00;96240.50;4995005;28;20675;-75
2022/01/14 05:04:44;;;;;;;23.07;12.83;;;;;;;-3.68;100.00;96251.41;5105179;27;20677;-75
2022/01/14 05:07:30;;;;;;;25.60;13.33;;;;;;;-3.86;100.00;96230.28;5087298;28;20197;-75
2022/01/14 05:10:35;;;;;;;21.63;13.50;;;;;;;-4.02;100.00;96232.03;5085815;28;20292;-74
2022/01/14 05:13:23;;;;;;;21.27;13.60;;;;;;;-3.86;100.00;96242.81;5080083;28;20255;-76
2022/01/14 05:16:10;;;;;;;20.97;13.30;;;;;;;-3.86;100.00;96235.63;5081978;28;20209;-74
2022/01/14 05:18:55;;;;;;;26.73;14.57;;;;;;;-3.85;100.00;96241.69;5081883;28;20276;-75
2022/01/14 05:21:41;;;;;;;23.17;14.33;;;;;;;-3.61;100.00;96239.06;5085191;28;20208;-75
2022/01/14 05:24:27;;;;;;;23.77;13.07;;;;;;;-3.61;100.00;96235.63;5097825;28;20239;-75
2022/01/14 05:27:13;;;;;;;21.67;12.57;;;;;;;-3.50;100.00;96236.72;5089095;28;20188;-75
2022/01/14 05:29:59;;;;;;;20.03;12.80;;;;;;;-3.45;100.00;96226.59;5088735;28;20238;-75
2022/01/14 05:32:48;;;;;;;22.27;13.03;;;;;;;-3.49;100.00;96246.28;5085777;28;20185;-75
2022/01/14 05:35:34;;;;;;;21.43;13.20;;;;;;;-3.62;100.00;96239.38;5100170;28;20196;-75
2022/01/14 05:38:20;;;;;;;20.43;12.70;;;;;;;-3.89;100.00;96238.16;5112981;28;20192;-75
2022/01/14 05:41:05;;;;;;;18.93;12.30;;;;;;;-4.02;100.00;96244.59;5104381;28;20228;-74
2022/01/14 05:43:51;;;;;;;22.93;13.00;;;;;;;-4.21;100.00;96218.41;5119405;28;20255;-75
2022/01/14 05:46:37;;;;;;;21.80;12.97;;;;;;;-4.03;100.00;96225.13;5105665;28;20199;-76
2022/01/14 05:49:23;;;;;;;22.57;13.40;;;;;;;-3.93;100.00;96239.94;5103880;28;20239;-75
2022/01/14 05:52:09;;;;;;;18.87;12.53;;;;;;;-4.02;100.00;96221.34;5105994;28;20208;-75
2022/01/14 05:54:55;;;;;;;17.17;11.20;;;;;;;-3.78;100.00;96236.59;5105305;28;20189;-75
2022/01/14 05:57:41;;;;;;;21.83;12.50;;;;;;;-3.61;100.00;96232.97;5105583;28;20226;-74
2022/01/14 06:00:27;;;;;;;20.13;12.57;;;;;;;-3.61;100.00;96231.03;5113942;28;20629;-76
2022/01/14 06:03:13;;;;;;;20.67;13.03;;;;;;;-4.18;100.00;96241.00;5089531;28;20612;-74
2022/01/14 06:05:59;;;;;;;18.70;12.93;;;;;;;-4.19;100.00;96226.88;5104456;28;20291;-75
2022/01/14 06:08:48;;;;;;;23.53;12.83;;;;;;;-4.14;100.00;96240.00;5106542;28;20192;-75
2022/01/14 06:11:37;;;;;;;20.87;12.37;;;;;;;-4.20;100.00;96206.66;5082690;28;20220;-75
2022/01/14 06:14:23;;;;;;;20.93;13.17;;;;;;;-3.57;100.00;96223.94;5101543;28;20607;-74
2022/01/14 06:17:09;;;;;;;20.53;13.00;;;;;;;-3.49;100.00;96233.72;5096050;28;20213;-75
2022/01/14 06:19:54;;;;;;;20.10;11.50;;;;;;;-3.58;100.00;96233.03;5077026;28;20213;-75
2022/01/14 06:22:40;;;;;;;18.33;12.00;;;;;;;-3.68;100.00;96246.06;5063481;28;20217;-75
2022/01/14 06:25:26;;;;;;;19.97;12.53;;;;;;;-3.92;100.00;96231.59;5093783;28;20319;-75
2022/01/14 06:28:12;;;;;;;19.13;12.50;;;;;;;-4.18;100.00;96228.44;5072293;28;20197;-75
2022/01/14 06:30:58;;;;;;;23.07;12.33;;;;;;;-4.29;100.00;96235.31;5090314;28;20244;-75
2022/01/14 06:33:44;;;;;;;17.93;10.33;;;;;;;-4.25;100.00;96230.88;5094103;28;20299;-75
2022/01/14 06:36:30;;;;;;;20.60;11.77;;;;;;;-3.83;100.00;96229.59;5076750;28;20317;-76
2022/01/14 06:39:16;;;;;;;20.23;11.60;;;;;;;-4.02;100.00;96236.59;5072642;28;20287;-74
2022/01/14 06:42:02;;;;;;;18.40;10.67;;;;;;;-4.34;100.00;96238.19;5075703;28;20271;-75
2022/01/14 06:44:48;;;;;;;16.37;10.90;;;;;;;-4.41;100.00;96251.25;5090800;28;20690;-75
2022/01/14 06:47:34;;;;;;;17.77;11.17;;;;;;;-4.42;100.00;96251.59;5092592;28;20197;-75
2022/01/14 06:50:21;;;;;;;16.50;11.23;;;;;;;-3.92;100.00;96244.94;5075672;28;20225;-74
2022/01/14 06:53:07;;;;;;;18.53;11.50;;;;;;;-4.05;100.00;96246.03;5091455;28;20244;-74
2022/01/14 06:55:52;;;;;;;16.70;10.57;;;;;;;-4.11;100.00;96241.25;5073808;28;20284;-74
2022/01/14 06:58:38;;;;;;;16.37;11.37;;;;;;;-4.23;100.00;96235.88;5090935;28;20224;-74
2022/01/14 07:01:24;;;;;;;16.10;10.50;;;;;;;-4.18;100.00;96249.00;5088145;28;20291;-75
2022/01/14 07:04:11;;;;;;;16.93;10.93;;;;;;;-4.39;100.00;96245.59;5072120;28;20221;-75
2022/01/14 07:06:57;;;;;;;18.63;11.50;;;;;;;-4.20;100.00;96243.22;5062658;28;20193;-76
2022/01/14 07:09:58;;;;;;;16.77;10.73;;;;;;;-3.89;100.00;96244.28;5091141;28;20221;-75
2022/01/14 07:12:44;;;;;;;14.60;10.40;;;;;;;-3.86;100.00;96242.81;5082163;28;20204;-74
2022/01/14 07:15:31;;;;;;;14.70;9.80;;;;;;;-3.81;100.00;96253.28;5070000;28;20224;-75
2022/01/14 07:18:17;;;;;;;16.97;10.17;;;;;;;-3.73;100.00;96263.06;5089433;28;20236;-74
2022/01/14 07:21:02;;;;;;;17.40;10.80;;;;;;;-3.89;100.00;96259.50;5070335;28;20221;-75
2022/01/14 07:23:48;;;;;;;16.17;11.73;;;;;;;-3.76;100.00;96266.41;5074069;28;20250;-75
2022/01/14 07:26:34;;;;;;;17.17;10.83;;;;;;;-3.76;100.00;96256.53;5063378;28;20201;-74
2022/01/14 07:29:20;;;;;;;16.63;10.07;;;;;;;-3.77;100.00;96268.28;5091556;28;20199;-75
2022/01/14 07:32:08;;;;;;;16.70;9.87;;;;;;;-3.76;100.00;96271.75;5103851;28;20192;-74
2022/01/14 07:34:54;;;;;;;18.53;11.70;;;;;;;-3.44;100.00;96265.53;5078929;28;20200;-74
2022/01/14 07:37:40;;;;;;;19.13;10.30;;;;;;;-3.58;100.00;96275.75;5103799;28;20693;-74
2022/01/14 07:40:26;;;;;;;19.37;11.30;;;;;;;-3.54;100.00;96265.19;5076768;28;20580;-74
2022/01/14 07:43:12;;;;;;;21.83;11.70;;;;;;;-3.63;100.00;96267.97;5085467;28;20248;-74
2022/01/14 07:45:58;;;;;;;20.87;12.10;;;;;;;-3.44;100.00;96262.06;5093260;28;20235;-75
2022/01/14 07:48:44;;;;;;;21.27;10.73;;;;;;;-3.50;100.00;96268.75;5092195;28;20204;-75
2022/01/14 07:51:30;;;;;;;18.30;10.67;;;;;;;-3.19;100.00;96279.66;5090681;28;20311;-75
2022/01/14 07:54:16;;;;;;;19.33;11.37;;;;;;;-3.02;100.00;96274.84;5073266;28;20231;-75
2022/01/14 07:57:03;;;;;;;18.33;11.20;;;;;;;-3.30;100.00;96281.22;5095863;28;20250;-75
2022/01/14 07:59:49;;;;;;;22.97;10.00;;;;;;;-3.48;100.00;96274.56;5090037;28;21011;-75
2022/01/14 08:02:35;;;;;;;17.97;11.23;;;;;;;-3.19;100.00;96277.75;5089971;28;20208;-74
2022/01/14 08:05:21;;;;;;;19.30;11.00;;;;;;;-3.07;100.00;96271.63;5082028;28;20208;-74
2022/01/14 08:08:07;;;;;;;17.23;11.03;;;;;;;-2.64;100.00;96261.06;5087832;28;20197;-74
2022/01/14 08:10:53;;;;;;;20.83;11.77;;;;;;;-2.77;100.00;96264.88;5088628;28;20224;-74
2022/01/14 08:13:39;;;;;;;18.80;11.40;;;;;;;-2.94;100.00;96273.94;5089796;28;20635;-74
2022/01/14 08:16:25;;;;;;;18.47;10.67;;;;;;;-2.78;100.00;96274.00;5077108;28;20197;-74
2022/01/14 08:19:11;;;;;;;20.77;10.57;;;;;;;-2.50;100.00;96274.81;5090448;28;20193;-74
2022/01/14 08:21:57;;;;;;;16.13;10.13;;;;;;;-2.28;100.00;96278.84;5057982;28;20657;-74
2022/01/14 08:24:43;;;;;;;21.23;11.10;;;;;;;-2.04;100.00;96276.84;5078677;28;20311;-74
2022/01/14 08:27:29;;;;;;;18.97;11.30;;;;;;;-1.86;100.00;96286.13;5087790;28;20235;-74
2022/01/14 08:30:15;;;;;;;16.93;11.23;;;;;;;-1.51;100.00;96283.56;5089359;28;20209;-74
2022/01/14 08:33:01;;;;;;;16.50;11.17;;;;;;;-1.42;100.00;96278.78;5085497;28;20220;-74
2022/01/14 08:35:47;;;;;;;16.07;10.73;;;;;;;-1.32;100.00;96278.25;5089574;28;20196;-74
2022/01/14 08:38:32;;;;;;;17.90;10.97;;;;;;;-1.15;100.00;96277.88;5073587;28;20209;-74
2022/01/14 08:41:19;;;;;;;18.27;11.03;;;;;;;-1.02;100.00;96273.22;5088196;28;20226;-74
2022/01/14 08:44:06;;;;;;;19.87;11.60;;;;;;;1.67;100.00;96262.91;5087442;28;20334;-74
2022/01/14 08:46:53;;;;;;;20.67;12.80;;;;;;;1.77;100.00;96256.88;5096504;28;20567;-74
2022/01/14 08:49:41;;;;;;;14.23;10.13;;;;;;;1.27;100.00;96251.25;5086574;28;20302;-74
2022/01/14 08:52:27;;;;;;;16.23;10.10;;;;;;;1.59;100.00;96261.28;5096090;28;20250;-74
2022/01/14 08:55:15;;;;;;;15.33;9.77;;;;;;;1.58;100.00;96253.56;5072212;28;20219;-74
2022/01/14 08:58:03;;;;;;;12.80;9.67;;;;;;;2.48;100.00;96263.75;5094806;28;20742;-74
2022/01/14 09:00:49;;;;;;;12.87;9.03;;;;;;;2.24;100.00;96262.38;5088124;28;20212;-74
2022/01/14 09:03:35;;;;;;;13.27;9.20;;;;;;;1.77;100.00;96253.41;5072762;28;20633;-74
2022/01/14 09:06:21;;;;;;;13.90;9.53;;;;;;;2.65;100.00;96260.44;5091122;28;20234;-74
2022/01/14 09:09:07;;;;;;;13.40;8.60;;;;;;;1.66;100.00;96257.91;5090510;28;20638;-74
2022/01/14 09:11:54;;;;;;;11.60;8.33;;;;;;;1.15;100.00;96257.63;5090987;28;20553;-75
2022/01/14 09:14:40;;;;;;;16.97;10.00;;;;;;;1.04;100.00;96256.69;5083843;28;20197;-75
2022/01/14 09:17:27;;;;;;;17.73;10.97;;;;;;;1.02;100.00;96262.41;5060548;28;20231;-74
2022/01/14 09:20:13;;;;;;;14.37;10.93;;;;;;;0.91;100.00;96269.56;5090634;28;20693;-74
2022/01/14 09:22:59;;;;;;;16.23;10.87;;;;;;;0.74;100.00;96269.28;5090896;28;20235;-74
2022/01/14 09:25:45;;;;;;;12.17;8.77;;;;;;;0.77;100.00;96263.19;5074150;28;20193;-74
2022/01/14 09:28:33;;;;;;;12.03;8.73;;;;;;;0.69;100.00;96261.53;5074059;28;20662;-74
2022/01/14 09:31:18;;;;;;;13.10;9.27;;;;;;;0.71;100.00;96245.81;5076378;28;20270;-75
2022/01/14 09:34:04;;;;;;;10.87;8.27;;;;;;;0.92;100.00;96257.66;5070577;28;20596;-74
2022/01/14 09:36:50;;;;;;;10.43;8.10;;;;;;;0.93;100.00;96253.81;5085373;28;20287;-75
2022/01/14 09:39:37;;;;;;;13.33;8.77;;;;;;;1.06;100.00;96254.41;5082048;28;20304;-74
2022/01/14 09:42:23;;;;;;;12.20;9.20;;;;;;;1.13;100.00;96257.19;5083982;28;20273;-75
2022/01/14 09:45:09;;;;;;;9.93;7.80;;;;;;;1.05;100.00;96250.94;5094103;28;20200;-74
2022/01/14 09:47:56;;;;;;;10.13;8.03;;;;;;;1.10;100.00;96253.31;5070185;28;20208;-75
2022/01/14 09:50:44;;;;;;;12.50;8.50;;;;;;;1.26;100.00;96255.84;5098484;28;20213;-75
2022/01/14 09:53:31;;;;;;;11.03;8.17;;;;;;;1.28;100.00;96253.56;5072706;28;20193;-74
2022/01/14 09:56:21;;;;;;;11.27;8.30;;;;;;;1.26;100.00;96271.22;5105025;28;20282;-75
2022/01/14 09:59:06;;;;;;;13.03;9.10;;;;;;;1.49;100.00;96272.69;5091866;28;20647;-75
2022/01/14 10:01:52;;;;;;;18.40;8.37;;;;;;;1.55;100.00;96254.28;5092768;28;20216;-75
2022/01/14 10:04:41;;;;;;;11.00;8.73;;;;;;;1.74;100.00;96240.66;5090772;28;20243;-75
2022/01/14 10:07:27;;;;;;;9.77;7.80;;;;;;;1.66;100.00;96264.06;5104938;28;20666;-75
2022/01/14 10:10:24;;;;;;;11.73;8.40;;;;;;;1.63;100.00;96245.94;5071566;28;20710;-75
2022/01/14 10:13:17;;;;;;;11.07;8.43;;;;;;;1.76;100.00;96249.94;5095202;28;20193;-75
2022/01/14 10:16:06;;;;;;;12.80;8.73;;;;;;;1.84;100.00;96248.88;5075819;28;20194;-74
2022/01/14 10:18:52;;;;;;;9.67;7.47;;;;;;;1.92;100.00;96252.41;5089440;28;20272;-75
2022/01/14 10:21:38;;;;;;;11.33;8.17;;;;;;;1.94;100.00;96250.91;5079012;28;20556;-75
2022/01/14 10:24:27;;;;;;;12.73;8.30;;;;;;;1.95;100.00;96257.84;5084482;28;20228;-75
2022/01/14 10:27:13;;;;;;;11.60;8.20;;;;;;;2.02;100.00;96249.84;5073460;28;20193;-75
2022/01/14 10:30:21;;;;;;;10.13;7.27;;;;;;;1.81;100.00;96248.84;5090264;28;20213;-75
2022/01/14 10:33:09;;;;;;;9.13;7.30;;;;;;;1.86;100.00;96229.66;5089771;28;20213;-75
2022/01/14 10:35:56;;;;;;;9.57;7.50;;;;;;;2.06;100.00;96233.72;5077280;28;20239;-75
2022/01/14 10:38:46;;;;;;;11.50;7.77;;;;;;;2.04;100.00;96225.22;5092384;28;20247;-75
2022/01/14 10:41:34;;;;;;;11.47;7.63;;;;;;;2.20;100.00;96237.34;5078354;28;20701;-75
2022/01/14 10:44:27;;;;;;;13.17;8.63;;;;;;;2.35;100.00;96228.22;5100352;28;20216;-76
2022/01/14 10:47:19;;;;;;;11.43;8.43;;;;;;;2.44;100.00;96223.28;5077375;28;20201;-75
2022/01/14 10:50:05;;;;;;;14.70;8.20;;;;;;;2.36;100.00;96224.38;5098288;28;20653;-75
2022/01/14 10:52:51;;;;;;;10.77;7.70;;;;;;;2.52;100.00;96231.44;5075634;28;20308;-74
2022/01/14 10:55:40;;;;;;;11.53;7.13;;;;;;;2.58;100.00;96227.25;5080426;28;20227;-74
2022/01/14 10:58:29;;;;;;;9.67;6.83;;;;;;;2.70;100.00;96235.81;5079697;28;20256;-75
2022/01/14 11:01:20;;;;;;;7.57;6.33;;;;;;;2.66;99.41;96223.47;5097297;28;20224;-74
2022/01/14 11:04:11;;;;;;;9.83;6.67;;;;;;;2.68;100.00;96231.97;5073645;28;20213;-76
2022/01/14 11:06:56;;;;;;;9.67;6.30;;;;;;;2.81;99.36;96219.72;5087551;28;20209;-75
2022/01/14 11:09:42;;;;;;;6.57;5.50;;;;;;;2.78;97.40;96210.47;5076424;28;20252;-75
2022/01/14 11:12:29;;;;;;;8.53;5.90;;;;;;;2.90;94.52;96218.25;5080100;28;20205;-74
2022/01/14 11:15:16;;;;;;;10.33;5.73;;;;;;;2.86;94.46;96222.06;5075802;28;20520;-75
2022/01/14 11:18:06;;;;;;;7.73;4.90;;;;;;;2.86;92.98;96214.75;5088159;28;20216;-74
2022/01/14 11:23:57;;;;;;;6.70;5.13;;;;;;;2.86;88.52;96203.97;5087245;28;20292;-75
2022/01/14 11:26:46;;;;;;;8.87;5.60;;;;;;;2.95;89.64;96193.63;5101375;28;20331;-75
2022/01/14 11:29:45;;;;;;;7.37;5.27;;;;;;;3.11;90.01;96198.72;5086656;28;20220;-75
2022/01/14 11:32:54;;;;;;;6.77;4.87;;;;;;;3.23;89.01;96182.97;5079751;28;20250;-75
2022/01/14 11:35:40;;;;;;;8.30;5.80;;;;;;;3.31;89.87;96181.84;5071816;28;20201;-75
2022/01/14 11:38:52;;;;;;;8.27;5.93;;;;;;;3.16;89.95;96168.66;5102339;28;20814;-74
2022/01/14 11:41:56;;;;;;;8.47;6.30;;;;;;;3.20;91.27;96172.94;5092991;28;20189;-74
2022/01/14 11:44:42;;;;;;;7.40;5.60;;;;;;;3.50;89.64;96169.97;5083666;28;20217;-75
2022/01/14 11:47:39;;;;;;;11.80;6.23;;;;;;;3.63;88.97;96163.09;5088794;28;20200;-75
2022/01/14 11:50:24;;;;;;;8.53;5.87;;;;;;;3.64;89.27;96157.28;5089794;28;20217;-75
2022/01/14 11:53:32;;;;;;;8.13;6.23;;;;;;;3.68;88.76;96147.25;5074300;28;20189;-75
2022/01/14 11:56:30;;;;;;;8.23;5.63;;;;;;;3.82;88.90;96143.81;5087301;28;20291;-75
2022/01/14 11:59:21;;;;;;;7.13;5.63;;;;;;;3.98;88.22;96148.88;5099172;28;20258;-75
2022/01/14 12:02:29;;;;;;;9.83;5.87;;;;;;;3.97;87.23;96147.34;5087546;28;20758;-75
2022/01/14 12:05:16;;;;;;;13.47;5.10;;;;;;;4.04;86.91;96147.34;5088755;28;20197;-75
2022/01/14 12:08:07;;;;;;;6.13;4.97;;;;;;;3.97;85.94;96141.94;5089857;28;20266;-75
2022/01/14 12:11:06;;;;;;;6.40;5.00;;;;;;;3.96;85.84;96140.38;5088476;28;20793;-75
2022/01/14 12:14:04;;;;;;;8.30;5.73;;;;;;;4.09;88.05;96147.72;5088129;28;20196;-76
2022/01/14 12:17:12;;;;;;;8.43;5.53;;;;;;;4.13;88.27;96140.41;5071208;28;20193;-75
2022/01/14 12:20:15;;;;;;;5.90;4.57;;;;;;;4.20;88.15;96137.69;5082361;28;20254;-75
2022/01/14 12:23:07;;;;;;;6.27;4.90;;;;;;;4.07;85.76;96136.53;5072017;28;20208;-75
2022/01/14 12:25:53;;;;;;;7.80;4.97;;;;;;;3.92;87.01;96140.34;5075373;28;20654;-75
2022/01/14 12:28:39;;;;;;;7.43;5.17;;;;;;;4.10;85.66;96134.97;5072180;28;20192;-74
2022/01/14 12:31:25;;;;;;;5.77;4.83;;;;;;;4.17;83.61;96141.19;5103731;28;20208;-75
2022/01/14 12:34:11;;;;;;;6.90;5.00;;;;;;;4.15;82.93;96135.38;5093352;28;20723;-75
2022/01/14 12:36:57;;;;;;;6.90;4.70;;;;;;;4.32;84.50;96134.63;5074886;28;20220;-75
2022/01/14 12:39:46;;;;;;;6.73;4.53;;;;;;;4.32;82.70;96123.00;5074852;28;20217;-73
2022/01/14 12:42:31;;;;;;;8.43;4.57;;;;;;;4.36;81.00;96123.81;5072983;28;20304;-73
2022/01/14 12:45:34;;;;;;;6.60;4.80;;;;;;;4.39;81.34;96121.09;5086733;28;20193;-74
2022/01/14 12:48:39;;;;;;;8.23;5.20;;;;;;;4.47;80.70;96124.56;5074168;28;20188;-73
2022/01/14 12:51:27;;;;;;;8.80;4.60;;;;;;;4.39;80.42;96121.09;5087412;28;20220;-73
2022/01/14 12:54:13;;;;;;;7.47;4.40;;;;;;;4.46;80.32;96125.72;5086751;28;20255;-74
2022/01/14 12:56:59;;;;;;;10.27;4.67;;;;;;;4.43;81.01;96113.72;5091028;28;20228;-74
2022/01/14 12:59:47;;;;;;;4.63;4.13;;;;;;;4.49;79.93;96100.59;5079801;28;20300;-73
2022/01/14 13:02:33;;;;;;;7.23;4.13;;;;;;;4.56;80.97;96111.41;5072767;28;20280;-74
2022/01/14 13:05:21;;;;;;;10.27;4.33;;;;;;;4.62;81.44;96124.16;5084256;28;20193;-73
2022/01/14 13:08:07;;;;;;;4.57;3.80;;;;;;;4.66;81.28;96119.53;5064478;28;20245;-73
2022/01/14 13:11:03;;;;;;;5.73;3.97;;;;;;;4.72;82.29;96115.25;5090917;28;20231;-73
2022/01/14 13:14:03;;;;;;;5.70;4.70;;;;;;;4.69;82.72;96110.63;5089777;28;20221;-73
2022/01/14 13:16:51;;;;;;;4.77;4.10;;;;;;;4.62;83.01;96110.63;5091414;28;20739;-73
2022/01/14 13:19:39;;;;;;;5.80;4.10;;;;;;;4.53;81.61;96118.34;5089833;28;20220;-74
2022/01/14 13:22:28;;;;;;;4.57;3.80;;;;;;;4.47;80.84;96111.03;5076466;28;20201;-73
2022/01/14 13:25:16;;;;;;;7.70;4.13;;;;;;;4.60;80.47;96107.53;5105220;28;20249;-73